Mammoth Yosemite Information

FAA: MMH - ICAO: KMMH

Mammoth Yosemite (Airport) Location

State California
County Mono
City Mammoth Lakes
Mammoth Yosemite (Airport) is 6 miles east of Mammoth Lakes, CA.
Latitude 37-37-26.6000N
Longitude 118-50-19.5000W
Elevation 7,134ft

Mammoth Yosemite METARs

METAR KMMH 251657Z AUTO 34006KT 10SM CLR M02/M09 A3023 RMK AO2 PWINO
Altimeter 30.23"
Temperature -2.0°C (28.4°F)
Wind 340° at 6KT
Clouds Skies are clear.
Visibility 10.0mi
Time observed: 2022-01-25T16:57:00Z

Mammoth Yosemite (Airport) Details

Status Operational
Activation September 1947
Ownership Public
Usage Public
Chart SAN FRANCISCO
ATC on-site No
Beacon schedule sunset-sunrise
Beacon color clear green

Mammoth Yosemite (Airport) Contacts

Owner TOWN OF MAMMOTH LAKES
Owner address 1300 AIRPORT ROAD, MAMMOTH LAKES, CA 93546
Owner phone 760-934-3813
Manager THOMAS SHORT, SENIOR PILOT
Manager address 12605 OSBORNE STREET, PACOIMA, CA 91331
Manager phone 818-890-5755

Mammoth Yosemite Radio Frequencies

Mammoth Yosemite (Airport) Radio Frequencies

UNICOM 122.8
Common traffic advisory frequency (CTAF) 122.8